Time;durP1;ratioP1;P1;durP2;ratioP2;P2;SDS_P1;SDS_P2;PMS_P1;PMS_P2;Temp;Humidity;BMP_temperature;BMP_pressure;BME280_temperature;BME280_humidity;BME280_pressure;Samples;Min_cycle;Max_cycle;Signal;HPM_P1;HPM_P2
2022/12/08 00:01:32;;;;;;;24.30;14.73;;;5.90;81.00;;;;;;5051290;28;20654;-70
2022/12/08 00:04:01;;;;;;;23.02;14.77;;;5.90;81.00;;;;;;5049526;28;20214;-70
2022/12/08 00:09:21;;;;;;;23.98;14.10;;;5.90;81.00;;;;;;5053339;28;20216;-70
2022/12/08 00:11:54;;;;;;;26.17;15.40;;;5.90;81.00;;;;;;5054151;28;20261;-70
2022/12/08 00:14:25;;;;;;;23.83;15.13;;;5.90;80.90;;;;;;5054736;28;20200;-70
2022/12/08 00:16:53;;;;;;;23.02;15.18;;;5.80;80.90;;;;;;5059496;28;20200;-71
2022/12/08 00:19:22;;;;;;;27.42;14.98;;;5.80;81.00;;;;;;5058008;28;20299;-70
2022/12/08 00:21:51;;;;;;;28.95;15.60;;;5.80;80.90;;;;;;5058455;28;20250;-70
2022/12/08 00:24:20;;;;;;;28.33;14.52;;;5.80;80.90;;;;;;5056237;28;20201;-70
2022/12/08 00:26:49;;;;;;;21.33;14.20;;;5.80;80.90;;;;;;5057934;28;20225;-72
2022/12/08 00:29:17;;;;;;;25.92;15.20;;;5.80;81.00;;;;;;5060960;28;20211;-70
2022/12/08 00:31:45;;;;;;;25.35;15.68;;;5.80;81.00;;;;;;5058232;28;20211;-71
2022/12/08 00:34:13;;;;;;;26.48;15.27;;;5.80;81.00;;;;;;5059797;28;20206;-71
2022/12/08 00:36:42;;;;;;;23.88;14.25;;;5.80;81.00;;;;;;5058529;28;20297;-68
2022/12/08 00:39:13;;;;;;;25.70;15.10;;;5.80;81.10;;;;;;5059073;28;20243;-71
2022/12/08 00:44:27;;;;;;;25.33;15.82;;;5.90;81.10;;;;;;5060458;28;20200;-68
2022/12/08 00:46:55;;;;;;;22.83;14.00;;;5.90;81.00;;;;;;5055268;28;20204;-69
2022/12/08 00:49:24;;;;;;;26.25;13.90;;;5.80;80.90;;;;;;5054386;28;20204;-69
2022/12/08 00:51:52;;;;;;;24.67;14.75;;;5.80;80.90;;;;;;5055637;28;20293;-70
2022/12/08 00:54:22;;;;;;;26.65;14.55;;;5.80;81.00;;;;;;5054970;28;20249;-69
2022/12/08 00:56:51;;;;;;;24.55;14.73;;;5.80;81.10;;;;;;5059033;28;20300;-69
2022/12/08 00:59:19;;;;;;;23.90;13.88;;;5.80;81.00;;;;;;5058151;28;20777;-69
2022/12/08 01:01:47;;;;;;;22.42;14.27;;;5.80;81.10;;;;;;5053979;28;20681;-69
2022/12/08 01:04:17;;;;;;;20.77;13.43;;;5.80;81.10;;;;;;5055718;28;20224;-69
2022/12/08 01:06:45;;;;;;;27.45;14.60;;;5.80;81.00;;;;;;5059189;28;20766;-68
2022/12/08 01:09:15;;;;;;;24.15;14.05;;;5.80;81.00;;;;;;5058366;28;20205;-69
2022/12/08 01:11:44;;;;;;;21.63;12.77;;;5.80;81.10;;;;;;5058356;28;21005;-69
2022/12/08 01:14:13;;;;;;;29.63;14.38;;;5.80;81.10;;;;;;5055448;28;20204;-69
2022/12/08 01:16:42;;;;;;;21.65;13.63;;;5.80;81.10;;;;;;5060812;28;20260;-69
2022/12/08 01:19:11;;;;;;;32.25;14.38;;;5.80;81.10;;;;;;5058801;28;20216;-69
2022/12/08 01:21:40;;;;;;;23.90;14.10;;;5.80;81.10;;;;;;5056482;28;20691;-72
2022/12/08 01:24:11;;;;;;;20.50;12.85;;;5.80;81.20;;;;;;5058020;28;20537;-71
2022/12/08 01:26:39;;;;;;;23.92;13.35;;;5.80;81.10;;;;;;5055589;28;20230;-70
2022/12/08 01:29:09;;;;;;;23.67;14.05;;;5.80;81.00;;;;;;5071770;28;20281;-70
2022/12/08 01:31:38;;;;;;;19.90;12.32;;;5.80;81.10;;;;;;5052498;28;20200;-70
2022/12/08 01:34:06;;;;;;;25.00;14.48;;;5.80;81.10;;;;;;5055485;28;20207;-70
2022/12/08 01:36:37;;;;;;;22.55;13.88;;;5.80;81.10;;;;;;5057727;28;20224;-70
2022/12/08 01:39:07;;;;;;;24.60;13.73;;;5.80;81.20;;;;;;5056505;28;20307;-71
2022/12/08 01:41:37;;;;;;;23.75;14.40;;;5.80;81.20;;;;;;5056922;28;20204;-69
2022/12/08 01:44:39;;;;;;;22.30;14.38;;;5.80;81.20;;;;;;5060049;28;20887;-68
2022/12/08 01:47:09;;;;;;;24.13;14.45;;;5.80;81.10;;;;;;5058803;28;20199;-69
2022/12/08 01:49:37;;;;;;;24.02;13.68;;;5.80;81.10;;;;;;5059722;28;20211;-68
2022/12/08 01:52:10;;;;;;;25.20;14.13;;;5.70;81.10;;;;;;5057594;28;20211;-71
2022/12/08 01:54:43;;;;;;;22.73;14.15;;;5.70;81.10;;;;;;5056016;28;20204;-70
2022/12/08 01:57:17;;;;;;;23.23;13.75;;;5.70;81.10;;;;;;5058131;28;20218;-70
2022/12/08 01:59:49;;;;;;;24.98;13.77;;;5.70;81.20;;;;;;5055888;28;20946;-71
2022/12/08 02:02:18;;;;;;;24.48;13.77;;;5.70;81.20;;;;;;5054036;28;20337;-68
2022/12/08 02:04:46;;;;;;;27.38;14.38;;;5.70;81.20;;;;;;5055069;28;20615;-69
2022/12/08 02:07:16;;;;;;;25.05;15.07;;;5.80;81.20;;;;;;5060777;28;20895;-70
2022/12/08 02:09:45;;;;;;;25.60;14.18;;;5.80;81.20;;;;;;5056440;28;20808;-67
2022/12/08 02:12:13;;;;;;;22.42;14.40;;;5.80;81.20;;;;;;5057773;28;20211;-69
2022/12/08 02:14:41;;;;;;;23.15;13.48;;;5.80;81.10;;;;;;5055798;28;20621;-69
2022/12/08 02:17:27;;;;;;;23.38;13.43;;;5.70;81.10;;;;;;5053703;28;20204;-69
2022/12/08 02:20:20;;;;;;;23.23;13.73;;;5.70;81.20;;;;;;5055652;28;20211;-69
2022/12/08 02:22:54;;;;;;;27.80;15.77;;;5.70;81.20;;;;;;5070069;28;20205;-69
2022/12/08 02:25:31;;;;;;;23.20;14.18;;;5.70;81.20;;;;;;5053506;28;20225;-69
2022/12/08 02:28:11;;;;;;;25.80;14.75;;;5.70;81.20;;;;;;5056033;28;20207;-70
2022/12/08 02:30:50;;;;;;;27.15;15.43;;;5.70;81.20;;;;;;5055795;28;20608;-69
2022/12/08 02:33:51;;;;;;;27.05;16.27;;;5.80;81.20;;;;;;5055067;28;20282;-69
2022/12/08 02:36:24;;;;;;;28.38;14.82;;;5.80;81.30;;;;;;5059822;28;20416;-69
2022/12/08 02:39:00;;;;;;;28.80;15.60;;;5.80;81.30;;;;;;5058933;28;20219;-69
2022/12/08 02:41:43;;;;;;;27.38;15.55;;;5.80;81.20;;;;;;5056131;28;20199;-69
2022/12/08 02:44:17;;;;;;;28.30;14.35;;;5.80;81.20;;;;;;5059174;28;20204;-68
2022/12/08 02:46:51;;;;;;;27.17;15.15;;;5.80;81.20;;;;;;5054426;28;20236;-69
2022/12/08 02:49:21;;;;;;;30.88;15.75;;;5.80;81.20;;;;;;5054511;28;20300;-69
2022/12/08 02:51:49;;;;;;;26.38;14.65;;;5.80;81.10;;;;;;5057608;28;20281;-71
2022/12/08 02:54:17;;;;;;;29.52;16.50;;;5.80;81.20;;;;;;5061133;28;20811;-70
2022/12/08 02:57:04;;;;;;;28.58;16.17;;;5.80;81.20;;;;;;5052720;28;20232;-70
2022/12/08 02:59:44;;;;;;;29.70;15.80;;;5.80;81.20;;;;;;5055298;28;20274;-68
2022/12/08 03:02:43;;;;;;;29.65;15.73;;;5.80;81.10;;;;;;5055019;28;20203;-70
2022/12/08 03:05:27;;;;;;;30.38;16.52;;;5.80;81.20;;;;;;5052997;28;20650;-69
2022/12/08 03:08:02;;;;;;;31.92;15.15;;;5.80;81.20;;;;;;5050586;28;20669;-71
2022/12/08 03:10:35;;;;;;;26.15;14.57;;;5.80;81.20;;;;;;5050252;28;20199;-68
2022/12/08 03:13:11;;;;;;;27.67;15.52;;;5.80;81.20;;;;;;5051950;28;20200;-69
2022/12/08 03:15:39;;;;;;;28.38;15.57;;;5.80;81.10;;;;;;5054194;28;20282;-71
2022/12/08 03:18:13;;;;;;;30.48;15.73;;;5.80;81.10;;;;;;5051811;28;20661;-69
2022/12/08 03:20:44;;;;;;;29.13;15.05;;;5.80;81.20;;;;;;5056677;28;20220;-70
2022/12/08 03:23:15;;;;;;;28.35;16.95;;;5.70;81.20;;;;;;5052731;28;20253;-70
2022/12/08 03:25:49;;;;;;;27.15;15.60;;;5.80;81.20;;;;;;5053837;28;20220;-70
2022/12/08 03:28:17;;;;;;;30.27;15.23;;;5.80;81.20;;;;;;5054539;28;20197;-70
2022/12/08 03:30:49;;;;;;;29.55;15.63;;;5.80;81.20;;;;;;5055547;28;20832;-70
2022/12/08 03:33:22;;;;;;;26.75;15.68;;;5.80;81.20;;;;;;5053896;28;20205;-71
2022/12/08 03:35:53;;;;;;;29.85;16.85;;;5.70;81.20;;;;;;5051639;28;20216;-70
2022/12/08 03:38:22;;;;;;;33.70;15.45;;;5.70;81.20;;;;;;5053214;28;20188;-70
2022/12/08 03:43:32;;;;;;;29.55;14.80;;;5.70;81.10;;;;;;5055698;28;20221;-70
2022/12/08 03:45:59;;;;;;;26.67;15.68;;;5.70;81.20;;;;;;5057351;28;20223;-71
2022/12/08 03:48:28;;;;;;;29.48;16.00;;;5.70;81.30;;;;;;5062081;28;20679;-70
2022/12/08 03:50:57;;;;;;;30.23;15.95;;;5.70;81.30;;;;;;5056217;28;20260;-70
2022/12/08 03:53:25;;;;;;;29.98;15.80;;;5.70;81.20;;;;;;5062267;28;20740;-70
2022/12/08 03:55:53;;;;;;;30.13;15.52;;;5.70;81.20;;;;;;5058403;28;20247;-70
2022/12/08 03:58:21;;;;;;;30.45;16.00;;;5.70;81.10;;;;;;5061093;28;20643;-70
2022/12/08 04:00:49;;;;;;;30.00;15.93;;;5.70;81.20;;;;;;5058476;28;20704;-69
2022/12/08 04:03:17;;;;;;;29.15;16.90;;;5.70;81.20;;;;;;5055228;28;20199;-70
2022/12/08 04:05:47;;;;;;;25.30;15.45;;;5.70;81.10;;;;;;5059341;28;20309;-70
2022/12/08 04:08:16;;;;;;;31.10;16.02;;;5.70;81.20;;;;;;5056839;28;20204;-70
2022/12/08 04:10:44;;;;;;;29.23;15.55;;;5.70;81.20;;;;;;5057411;28;20694;-70
2022/12/08 04:13:12;;;;;;;32.10;15.10;;;5.70;81.20;;;;;;5057376;28;20189;-70
2022/12/08 04:15:44;;;;;;;30.60;15.90;;;5.70;81.20;;;;;;5061402;28;20439;-70
2022/12/08 04:18:12;;;;;;;32.90;16.13;;;5.60;81.20;;;;;;5058263;28;20209;-70
2022/12/08 04:20:40;;;;;;;26.10;15.18;;;5.60;81.20;;;;;;5055500;28;20250;-70
2022/12/08 04:23:09;;;;;;;26.48;15.07;;;5.60;81.30;;;;;;5056619;28;20227;-70
2022/12/08 04:25:40;;;;;;;30.55;14.32;;;5.60;81.30;;;;;;5058803;28;20224;-70
2022/12/08 04:28:08;;;;;;;28.88;15.32;;;5.60;81.30;;;;;;5058682;28;20260;-70
2022/12/08 04:30:36;;;;;;;31.33;14.68;;;5.60;81.20;;;;;;5057858;28;20201;-70
2022/12/08 04:33:04;;;;;;;26.85;14.27;;;5.60;81.30;;;;;;5064499;28;20270;-70
2022/12/08 04:35:32;;;;;;;27.48;14.95;;;5.70;81.30;;;;;;5057010;28;20224;-70
2022/12/08 04:38:00;;;;;;;27.35;14.25;;;5.70;81.30;;;;;;5073244;28;20262;-70
2022/12/08 04:40:28;;;;;;;26.70;13.95;;;5.70;81.30;;;;;;5058974;28;20217;-70
2022/12/08 04:42:57;;;;;;;23.63;12.70;;;5.70;81.30;;;;;;5055682;28;20207;-70
2022/12/08 04:45:25;;;;;;;23.88;13.38;;;5.70;81.40;;;;;;5061217;28;20258;-71
2022/12/08 04:47:53;;;;;;;23.70;13.88;;;5.60;81.30;;;;;;5055527;28;20216;-70
2022/12/08 04:50:21;;;;;;;22.70;13.43;;;5.60;81.30;;;;;;5058650;28;20213;-71
2022/12/08 04:52:49;;;;;;;26.17;13.20;;;5.60;81.30;;;;;;5057092;28;20203;-70
2022/12/08 04:55:18;;;;;;;21.63;11.70;;;5.70;81.40;;;;;;5058513;28;20724;-70
2022/12/08 04:57:46;;;;;;;21.80;11.90;;;5.70;81.30;;;;;;5055933;28;20735;-70
2022/12/08 05:00:16;;;;;;;18.45;12.38;;;5.60;81.40;;;;;;5056809;28;20193;-70
2022/12/08 05:02:44;;;;;;;22.33;12.45;;;5.70;81.40;;;;;;5052744;28;20205;-71
2022/12/08 05:05:12;;;;;;;18.80;11.13;;;5.70;81.50;;;;;;5063332;28;20227;-70
2022/12/08 05:07:40;;;;;;;23.73;12.38;;;5.70;81.40;;;;;;5058105;28;20948;-71
2022/12/08 05:10:09;;;;;;;20.27;11.65;;;5.70;81.40;;;;;;5056473;28;20211;-70
2022/12/08 05:12:37;;;;;;;18.05;11.00;;;5.70;81.40;;;;;;5056113;28;20215;-70
2022/12/08 05:15:06;;;;;;;17.92;10.50;;;5.70;81.40;;;;;;5057127;28;20784;-71
2022/12/08 05:17:35;;;;;;;19.15;11.30;;;5.70;81.40;;;;;;5061791;28;20266;-69
2022/12/08 05:20:03;;;;;;;20.90;12.18;;;5.70;81.40;;;;;;5054918;28;20695;-71
2022/12/08 05:22:31;;;;;;;19.02;11.73;;;5.70;81.40;;;;;;5055780;28;20232;-70
2022/12/08 05:25:00;;;;;;;20.15;11.98;;;5.70;81.40;;;;;;5060738;28;20909;-70
2022/12/08 05:27:27;;;;;;;19.40;11.18;;;5.70;81.30;;;;;;5057621;28;20278;-71
2022/12/08 05:29:55;;;;;;;21.33;12.05;;;5.60;81.30;;;;;;5060607;28;20192;-70
2022/12/08 05:32:23;;;;;;;20.50;11.68;;;5.60;81.40;;;;;;5054800;28;20192;-71
2022/12/08 05:34:53;;;;;;;23.35;12.18;;;5.60;81.40;;;;;;5059341;28;20232;-70
2022/12/08 05:37:21;;;;;;;18.58;10.65;;;5.60;81.40;;;;;;5061411;28;20203;-69
2022/12/08 05:39:48;;;;;;;19.17;10.75;;;5.60;81.40;;;;;;5057252;28;20934;-70
2022/12/08 05:42:16;;;;;;;15.90;10.45;;;5.60;81.50;;;;;;5059161;28;20207;-70
2022/12/08 05:44:51;;;;;;;17.98;10.73;;;5.60;81.60;;;;;;5053696;28;20228;-70
2022/12/08 05:47:19;;;;;;;19.63;10.60;;;5.60;81.50;;;;;;5062064;28;20204;-69
2022/12/08 05:49:47;;;;;;;19.60;10.93;;;5.70;81.50;;;;;;5060827;28;20207;-70
2022/12/08 05:52:17;;;;;;;16.00;10.45;;;5.60;81.40;;;;;;5053280;28;20273;-70
2022/12/08 05:54:45;;;;;;;18.75;10.82;;;5.60;81.50;;;;;;5052245;28;20197;-70
2022/12/08 05:57:13;;;;;;;19.42;9.85;;;5.60;81.60;;;;;;5059330;28;20212;-70
2022/12/08 05:59:41;;;;;;;17.08;10.38;;;5.60;81.60;;;;;;5071172;28;20803;-70
2022/12/08 06:02:08;;;;;;;17.50;11.00;;;5.70;81.50;;;;;;5056863;28;20265;-70
2022/12/08 06:04:37;;;;;;;15.80;9.90;;;5.60;81.50;;;;;;5057420;28;20261;-70
2022/12/08 06:07:05;;;;;;;18.80;10.32;;;5.70;81.50;;;;;;5054856;28;20669;-70
2022/12/08 06:09:34;;;;;;;17.15;10.02;;;5.60;81.60;;;;;;5055566;28;20713;-70
2022/12/08 06:12:02;;;;;;;15.68;8.35;;;5.70;81.50;;;;;;5063208;28;20204;-71
2022/12/08 06:14:30;;;;;;;16.45;9.50;;;5.70;81.60;;;;;;5056343;28;20266;-71
2022/12/08 06:16:58;;;;;;;16.77;10.70;;;5.70;81.50;;;;;;5075461;28;20219;-70
2022/12/08 06:19:26;;;;;;;14.80;8.60;;;5.70;81.40;;;;;;5064341;28;20865;-70
2022/12/08 06:21:54;;;;;;;18.92;10.18;;;5.60;81.50;;;;;;5060828;28;20220;-70
2022/12/08 06:24:23;;;;;;;16.15;9.00;;;5.60;81.40;;;;;;5060142;28;20204;-70
2022/12/08 06:26:53;;;;;;;16.67;8.85;;;5.60;81.40;;;;;;5064485;28;20228;-70
2022/12/08 06:29:22;;;;;;;15.85;9.38;;;5.60;81.50;;;;;;5067010;28;20239;-71
2022/12/08 06:31:51;;;;;;;15.35;9.40;;;5.60;81.50;;;;;;5065757;28;20227;-71
2022/12/08 06:34:19;;;;;;;16.30;10.07;;;5.60;81.50;;;;;;5063449;28;20223;-71
2022/12/08 06:36:47;;;;;;;16.85;9.80;;;5.60;81.50;;;;;;5087059;28;20228;-70
2022/12/08 06:39:15;;;;;;;15.27;9.27;;;5.60;81.40;;;;;;5070488;28;20205;-70
2022/12/08 06:44:26;;;;;;;17.40;9.75;;;5.60;81.40;;;;;;5067854;28;20272;-70
2022/12/08 06:46:54;;;;;;;15.98;9.00;;;5.60;81.50;;;;;;5064747;28;20224;-71
2022/12/08 06:49:22;;;;;;;13.52;8.45;;;5.60;81.50;;;;;;5085204;28;20258;-71
2022/12/08 06:51:50;;;;;;;14.88;8.60;;;5.60;81.50;;;;;;5067578;28;20262;-71
2022/12/08 06:54:17;;;;;;;12.65;7.25;;;5.60;81.50;;;;;;5067255;28;20241;-71
2022/12/08 06:56:46;;;;;;;16.27;9.10;;;5.60;81.50;;;;;;5073305;28;20247;-72
2022/12/08 06:59:13;;;;;;;18.92;10.02;;;5.60;81.40;;;;;;5059602;28;20738;-72
2022/12/08 07:01:43;;;;;;;15.20;8.20;;;5.60;81.40;;;;;;5057553;28;20265;-72
2022/12/08 07:04:11;;;;;;;15.10;8.20;;;5.60;81.40;;;;;;5054921;28;20204;-71
2022/12/08 07:06:39;;;;;;;13.95;8.35;;;5.60;81.40;;;;;;5057595;28;20246;-72
2022/12/08 07:09:07;;;;;;;21.50;9.80;;;5.50;81.40;;;;;;5056538;28;20196;-72
2022/12/08 07:11:35;;;;;;;16.02;9.35;;;5.50;81.40;;;;;;5060378;28;20665;-71
2022/12/08 07:14:03;;;;;;;14.07;8.50;;;5.50;81.40;;;;;;5056016;28;20200;-71
2022/12/08 07:16:31;;;;;;;14.77;8.90;;;5.50;81.40;;;;;;5053971;28;20219;-71
2022/12/08 07:19:01;;;;;;;17.60;10.00;;;5.50;81.40;;;;;;5060548;28;20572;-71
2022/12/08 07:21:28;;;;;;;13.20;8.63;;;5.50;81.40;;;;;;5063599;28;20273;-71
2022/12/08 07:23:56;;;;;;;14.68;9.00;;;5.50;81.40;;;;;;5059389;28;20206;-71
2022/12/08 07:26:25;;;;;;;15.93;8.63;;;5.50;81.40;;;;;;5061309;28;20712;-71
2022/12/08 07:28:54;;;;;;;14.73;8.80;;;5.50;81.30;;;;;;5061600;28;20674;-71
2022/12/08 07:31:23;;;;;;;14.85;8.85;;;5.50;81.30;;;;;;5078713;28;20250;-71
2022/12/08 07:33:52;;;;;;;16.45;9.43;;;5.50;81.30;;;;;;5060017;28;20204;-71
2022/12/08 07:36:22;;;;;;;17.10;9.30;;;5.50;81.30;;;;;;5062225;28;20239;-71
2022/12/08 07:38:52;;;;;;;15.45;10.20;;;5.50;81.40;;;;;;5063463;28;20196;-71
2022/12/08 07:41:21;;;;;;;14.60;9.75;;;5.50;81.40;;;;;;5065264;28;20764;-71
2022/12/08 07:43:50;;;;;;;17.73;10.43;;;5.50;81.40;;;;;;5061545;28;20670;-71
2022/12/08 07:46:20;;;;;;;16.50;9.20;;;5.40;81.50;;;;;;5061447;28;20823;-70
2022/12/08 07:48:49;;;;;;;20.02;9.93;;;5.40;81.50;;;;;;5065590;28;20199;-71
2022/12/08 07:51:18;;;;;;;18.23;10.85;;;5.40;81.50;;;;;;5064531;28;20196;-71
2022/12/08 07:53:50;;;;;;;17.40;10.43;;;5.50;81.50;;;;;;5066695;28;20211;-71
2022/12/08 07:56:21;;;;;;;16.42;9.02;;;5.50;81.60;;;;;;5064854;28;20254;-71
2022/12/08 07:58:50;;;;;;;15.85;9.60;;;5.50;81.60;;;;;;5064406;28;20212;-71
2022/12/08 08:01:20;;;;;;;19.58;10.77;;;5.50;81.50;;;;;;5059810;28;20208;-71
2022/12/08 08:03:48;;;;;;;16.08;9.05;;;5.50;81.50;;;;;;5064901;28;20212;-71
2022/12/08 08:06:16;;;;;;;20.90;10.25;;;5.50;81.40;;;;;;5063957;28;20257;-71
2022/12/08 08:08:45;;;;;;;20.33;11.38;;;5.50;81.50;;;;;;5060796;28;20700;-71
2022/12/08 08:11:15;;;;;;;17.73;10.23;;;5.50;81.50;;;;;;5061637;28;20208;-71
2022/12/08 08:13:48;;;;;;;16.45;10.13;;;5.50;81.40;;;;;;5061403;28;20202;-71
2022/12/08 08:16:18;;;;;;;18.00;11.25;;;5.50;81.40;;;;;;5060589;28;20854;-71
2022/12/08 08:18:48;;;;;;;18.60;10.27;;;5.50;81.40;;;;;;5057515;28;20200;-71
2022/12/08 08:21:17;;;;;;;16.35;10.05;;;5.50;81.50;;;;;;5058510;28;20261;-71
2022/12/08 08:24:05;;;;;;;17.05;10.57;;;5.50;81.50;;;;;;5076624;28;20226;-71
2022/12/08 08:26:36;;;;;;;19.23;11.38;;;5.50;81.60;;;;;;5077457;28;20236;-71
2022/12/08 08:29:04;;;;;;;19.38;10.98;;;5.50;81.50;;;;;;5061001;28;20197;-71
2022/12/08 08:31:32;;;;;;;20.17;10.90;;;5.60;81.50;;;;;;5057472;28;20630;-71
2022/12/08 08:34:04;;;;;;;18.90;12.05;;;5.60;81.40;;;;;;5058395;28;20697;-71
2022/12/08 08:36:33;;;;;;;20.73;11.60;;;5.50;81.50;;;;;;5074866;28;20244;-71
2022/12/08 08:39:01;;;;;;;20.95;12.30;;;5.60;81.40;;;;;;5056378;28;20200;-72
2022/12/08 08:41:29;;;;;;;19.75;12.07;;;5.60;81.50;;;;;;5055120;28;20297;-71
2022/12/08 08:43:59;;;;;;;21.10;11.82;;;5.60;81.50;;;;;;5058875;28;20227;-71
2022/12/08 08:46:27;;;;;;;23.20;12.80;;;5.50;81.50;;;;;;5056706;28;20220;-71
2022/12/08 08:48:55;;;;;;;20.30;12.23;;;5.60;81.50;;;;;;5054112;28;20648;-71
2022/12/08 08:51:23;;;;;;;19.90;12.05;;;5.60;81.50;;;;;;5056143;28;20200;-71
2022/12/08 08:53:51;;;;;;;22.88;12.50;;;5.60;81.50;;;;;;5061236;28;20204;-71
2022/12/08 08:56:19;;;;;;;20.98;13.05;;;5.60;81.50;;;;;;5063056;28;20712;-71
2022/12/08 08:58:48;;;;;;;21.65;12.60;;;5.60;81.50;;;;;;5053089;28;20209;-71
2022/12/08 09:01:19;;;;;;;21.13;11.35;;;5.60;81.50;;;;;;5051217;28;20215;-71
2022/12/08 09:03:48;;;;;;;19.73;12.20;;;5.60;81.50;;;;;;5051329;28;20304;-71
2022/12/08 09:06:17;;;;;;;23.23;11.50;;;5.60;81.50;;;;;;5057558;28;20215;-70
2022/12/08 09:08:46;;;;;;;19.13;11.68;;;5.60;81.60;;;;;;5059517;28;20212;-71
2022/12/08 09:11:15;;;;;;;18.88;11.75;;;5.60;81.50;;;;;;5062024;28;20900;-71
2022/12/08 09:13:43;;;;;;;17.48;11.40;;;5.60;81.40;;;;;;5057480;28;20200;-72
2022/12/08 09:16:12;;;;;;;18.30;10.32;;;5.60;81.40;;;;;;5057101;28;20225;-70
2022/12/08 09:18:41;;;;;;;17.85;11.15;;;5.50;81.50;;;;;;5056384;28;20291;-70
2022/12/08 09:21:11;;;;;;;17.10;10.82;;;5.50;81.50;;;;;;5061917;28;20200;-71
2022/12/08 09:23:39;;;;;;;16.30;10.35;;;5.60;81.60;;;;;;5055860;28;20613;-70
2022/12/08 09:26:13;;;;;;;16.38;10.43;;;5.60;81.50;;;;;;5058827;28;21199;-70
2022/12/08 09:28:45;;;;;;;17.88;10.25;;;5.60;81.50;;;;;;5058366;28;20212;-71
2022/12/08 09:31:13;;;;;;;18.65;11.02;;;5.60;81.60;;;;;;5059452;28;20773;-71
2022/12/08 09:33:43;;;;;;;18.02;9.75;;;5.60;81.60;;;;;;5059467;28;20828;-70
2022/12/08 09:36:11;;;;;;;15.73;9.55;;;5.60;81.60;;;;;;5057792;28;20227;-72
2022/12/08 09:38:39;;;;;;;15.98;9.95;;;5.60;81.50;;;;;;5056664;28;20336;-69
2022/12/08 09:41:28;;;;;;;18.48;10.75;;;5.60;81.60;;;;;;5055177;28;20693;-69
2022/12/08 09:44:31;;;;;;;18.08;10.98;;;5.70;81.80;;;;;;5057832;28;20213;-69
2022/12/08 09:47:01;;;;;;;16.65;11.00;;;5.70;81.80;;;;;;5051369;28;20226;-70
2022/12/08 09:49:37;;;;;;;16.60;10.50;;;5.70;81.80;;;;;;5059911;28;20200;-71
2022/12/08 09:52:12;;;;;;;16.17;10.07;;;5.70;81.60;;;;;;5057860;28;20192;-70
2022/12/08 09:54:40;;;;;;;19.52;11.20;;;5.70;81.60;;;;;;5055076;28;20257;-71
2022/12/08 09:57:16;;;;;;;20.70;11.10;;;5.80;81.60;;;;;;5060458;28;20265;-71
2022/12/08 09:59:47;;;;;;;22.55;11.40;;;5.80;81.70;;;;;;5057257;28;20215;-72
2022/12/08 10:02:22;;;;;;;16.83;10.73;;;5.80;81.70;;;;;;5055361;28;20204;-71
2022/12/08 10:04:55;;;;;;;16.50;10.15;;;5.80;81.60;;;;;;5058740;28;20234;-72
2022/12/08 10:07:33;;;;;;;21.33;11.20;;;5.80;81.60;;;;;;5055694;28;20196;-71
2022/12/08 10:10:07;;;;;;;20.92;9.98;;;5.80;81.60;;;;;;5051933;28;20234;-70
2022/12/08 10:12:42;;;;;;;20.17;11.45;;;5.80;81.60;;;;;;5048084;28;20208;-70
2022/12/08 10:15:33;;;;;;;20.60;10.68;;;5.80;81.50;;;;;;5057770;28;20258;-70
2022/12/08 10:18:03;;;;;;;16.50;9.90;;;5.80;81.60;;;;;;5057829;28;20202;-70
2022/12/08 10:20:37;;;;;;;19.30;10.85;;;5.90;81.60;;;;;;5055370;28;20618;-71
2022/12/08 10:23:15;;;;;;;17.23;9.80;;;5.90;81.60;;;;;;5072843;28;20215;-71
2022/12/08 10:25:46;;;;;;;19.42;11.40;;;5.90;81.70;;;;;;5055893;28;20223;-71
2022/12/08 10:28:14;;;;;;;17.35;10.73;;;5.90;81.60;;;;;;5056820;28;20205;-72
2022/12/08 10:30:42;;;;;;;19.40;11.55;;;6.00;81.60;;;;;;5060524;28;20222;-70
2022/12/08 10:33:15;;;;;;;21.55;11.43;;;6.00;81.60;;;;;;5056905;28;20580;-71
2022/12/08 10:35:47;;;;;;;18.27;10.15;;;6.00;81.60;;;;;;5056679;28;20224;-70
2022/12/08 10:38:22;;;;;;;17.98;11.27;;;6.00;81.60;;;;;;5052878;28;20200;-71
2022/12/08 10:40:52;;;;;;;16.85;10.23;;;6.00;81.50;;;;;;5053617;28;20204;-71
2022/12/08 10:43:23;;;;;;;17.63;11.07;;;6.00;81.60;;;;;;5057692;28;20248;-71
2022/12/08 10:45:52;;;;;;;19.20;11.23;;;6.00;81.60;;;;;;5054736;28;20873;-72
2022/12/08 10:48:22;;;;;;;17.63;9.80;;;6.10;81.60;;;;;;5052541;28;20196;-70
2022/12/08 10:50:56;;;;;;;14.30;9.43;;;6.10;81.60;;;;;;5052245;28;20231;-73
2022/12/08 10:53:26;;;;;;;18.00;10.65;;;6.10;81.60;;;;;;5056062;28;20720;-70
2022/12/08 10:56:07;;;;;;;15.38;8.93;;;6.10;81.60;;;;;;5055421;28;20289;-71
2022/12/08 10:58:39;;;;;;;18.42;9.25;;;6.10;81.60;;;;;;5057478;28;20208;-70
2022/12/08 11:01:13;;;;;;;17.75;9.93;;;6.10;81.50;;;;;;5053686;28;20664;-70
2022/12/08 11:03:47;;;;;;;15.05;9.00;;;6.20;81.60;;;;;;5048995;28;20583;-71
2022/12/08 11:06:19;;;;;;;17.55;9.43;;;6.20;81.70;;;;;;5052733;28;20232;-70
2022/12/08 11:08:52;;;;;;;14.65;9.43;;;6.30;81.80;;;;;;5056383;28;20236;-72
2022/12/08 11:11:22;;;;;;;16.55;9.50;;;6.40;81.80;;;;;;5049717;28;20196;-69
2022/12/08 11:13:56;;;;;;;14.85;9.15;;;6.50;81.90;;;;;;5055621;28;20196;-72
2022/12/08 11:16:24;;;;;;;15.48;10.18;;;6.60;81.90;;;;;;5058764;28;20763;-70
2022/12/08 11:18:57;;;;;;;17.75;9.00;;;6.60;81.80;;;;;;5055275;28;20204;-72
2022/12/08 11:21:36;;;;;;;15.43;9.20;;;6.70;81.80;;;;;;5071759;28;20220;-71
2022/12/08 11:24:21;;;;;;;13.93;9.18;;;6.80;81.70;;;;;;5055503;28;20713;-71
2022/12/08 11:26:53;;;;;;;14.20;8.90;;;6.80;81.50;;;;;;5052824;28;20739;-71
2022/12/08 11:29:21;;;;;;;15.43;8.80;;;6.90;81.40;;;;;;5053945;28;20606;-70
2022/12/08 11:31:54;;;;;;;15.23;9.15;;;6.90;81.40;;;;;;5054782;28;20204;-69
2022/12/08 11:34:31;;;;;;;19.75;9.20;;;6.90;81.30;;;;;;5051400;28;20197;-71
2022/12/08 11:37:02;;;;;;;14.10;8.05;;;7.00;81.30;;;;;;5058014;28;20284;-70
2022/12/08 11:39:34;;;;;;;15.18;8.73;;;7.00;81.20;;;;;;5056898;28;20681;-71
2022/12/08 11:42:04;;;;;;;13.40;8.02;;;7.00;81.20;;;;;;5052007;28;21128;-71
2022/12/08 11:44:38;;;;;;;16.17;8.10;;;7.10;81.20;;;;;;5053629;28;20266;-70
2022/12/08 11:47:13;;;;;;;17.65;8.68;;;7.10;81.20;;;;;;5053707;28;20211;-72
2022/12/08 11:49:42;;;;;;;15.65;9.30;;;7.20;81.10;;;;;;5057590;28;20261;-71
2022/12/08 11:52:21;;;;;;;12.20;7.72;;;7.20;80.90;;;;;;5052161;28;20209;-72
2022/12/08 11:54:55;;;;;;;14.80;7.82;;;7.30;80.70;;;;;;5051930;28;20203;-70
2022/12/08 11:57:26;;;;;;;14.65;8.75;;;7.20;80.80;;;;;;5054840;28;20210;-70
2022/12/08 11:59:56;;;;;;;16.08;9.00;;;7.30;80.70;;;;;;5057067;28;20208;-70
2022/12/08 12:02:27;;;;;;;14.65;8.75;;;7.30;80.70;;;;;;5053037;28;20223;-71
2022/12/08 12:05:00;;;;;;;16.70;8.90;;;7.30;80.60;;;;;;5072244;28;20235;-72
2022/12/08 12:07:54;;;;;;;14.15;8.52;;;7.30;80.50;;;;;;5058290;28;20231;-70
2022/12/08 12:10:46;;;;;;;18.55;7.78;;;7.30;80.50;;;;;;5055769;28;20678;-71
2022/12/08 12:13:41;;;;;;;14.63;8.85;;;7.40;80.50;;;;;;5056217;28;21012;-70
2022/12/08 12:16:27;;;;;;;13.27;8.50;;;7.40;80.40;;;;;;5061224;28;20284;-70
2022/12/08 12:18:58;;;;;;;15.25;8.60;;;7.40;80.30;;;;;;5059534;28;20234;-70
2022/12/08 12:21:32;;;;;;;14.63;8.07;;;7.40;80.30;;;;;;5061545;28;20258;-70
2022/12/08 12:24:07;;;;;;;16.63;8.02;;;7.40;80.10;;;;;;5054503;28;20204;-73
2022/12/08 12:26:38;;;;;;;12.18;7.80;;;7.40;80.20;;;;;;5056308;28;20223;-72
2022/12/08 12:29:12;;;;;;;11.73;7.18;;;7.40;80.20;;;;;;5055350;28;20205;-73
2022/12/08 12:31:43;;;;;;;12.45;7.38;;;7.40;80.10;;;;;;5056157;28;20207;-72
2022/12/08 12:34:16;;;;;;;10.88;7.07;;;7.40;80.10;;;;;;5053215;28;20201;-72
2022/12/08 12:36:50;;;;;;;11.40;5.72;;;7.40;80.00;;;;;;5051204;28;20236;-72
2022/12/08 12:39:23;;;;;;;9.98;5.88;;;7.40;79.90;;;;;;5052059;28;20196;-71
2022/12/08 12:41:55;;;;;;;9.68;5.78;;;7.40;79.90;;;;;;5060689;28;20200;-72
2022/12/08 12:44:42;;;;;;;11.05;5.55;;;7.40;79.80;;;;;;5073534;28;20578;-72
2022/12/08 12:47:34;;;;;;;10.65;5.70;;;7.30;79.50;;;;;;5071215;28;20601;-71
2022/12/08 12:50:08;;;;;;;8.30;4.95;;;7.30;79.60;;;;;;5060378;28;20248;-71
2022/12/08 12:52:47;;;;;;;8.68;4.75;;;7.30;79.60;;;;;;5057968;28;20204;-71
2022/12/08 12:55:50;;;;;;;8.38;5.18;;;7.30;79.60;;;;;;5056010;28;20722;-71
2022/12/08 12:58:41;;;;;;;8.25;4.75;;;7.30;79.40;;;;;;5065772;28;20203;-71
2022/12/08 13:01:43;;;;;;;8.60;4.85;;;7.20;79.40;;;;;;5061713;28;20216;-72
2022/12/08 13:04:11;;;;;;;7.80;4.20;;;7.20;79.40;;;;;;5065345;28;20218;-71
2022/12/08 13:06:42;;;;;;;8.82;4.90;;;7.20;79.40;;;;;;5060331;28;20916;-71
2022/12/08 13:09:28;;;;;;;7.43;4.65;;;7.20;79.40;;;;;;5057362;28;20197;-71
2022/12/08 13:11:59;;;;;;;7.65;4.40;;;7.20;79.30;;;;;;5056544;28;20261;-71
2022/12/08 13:14:45;;;;;;;12.65;4.65;;;7.20;79.20;;;;;;5057764;28;20207;-72